Low, Canada
Current Conditions -  °F | °C
As of 7:00 AM on Thursday 23 Oct 2014 (Local Time) from CYND Reporting Station
Few Clouds Few Clouds  
Wind Chill: 37°   Ceiling: Unl
Heat Index: 37°   Visibility: 15mi
Dew Point: 34°   Wind: 3mph
Humidity: 87%   Direction: 280°W
Pressure: 30.14"   Gusts: NA
Location:  45.8°N, 75.95°W
Report Text: CYND 231100Z 28003KT 15SM FEW060 03/01 A3014 RMK SC2 SLP208
Loading
Personal Weather Stations






























Interactive Weather Map
Tropical Storm Tracking
New forecast layout! Learn more

10-Day Weather Forecast

Advertisements
Track Severe Weather on mobile